Myrtle Beach, SC

4:26 PM EDT on September 18, 2014 (GMT -0400)
Green Lake | Change Station
CLOSE
Current Station
Personal Weather Station
Location: Myrtle Beach, SC
Elevation: 39 ft
Nearby Weather Stations

Elev 39 ft 33.78 °N, 78.78 °W | Updated 3 seconds ago

Mostly Cloudy
Mostly Cloudy
78.3 °F
Feels Like 81 °F
N
0.9
Wind Variable Wind from NE
Gusts 2.0 mph

Today
High -- | Low -- °F
--% Chance of Precip.
Yesterday
High -- | Low -- °F
Precip. -- in
7:00 AM 7:17 PM
Waning Crescent, 25% visible
Pressure 29.95 in
Visibility 10.0 miles
Clouds Few 5000 ft
Few 6500 ft
Mostly Cloudy 8000 ft
Heat Index 81 °F
Dew Point 72 °F
Humidity 82%
Rainfall 0.75 in
Snow Depth Not available.
UV 1.4 out of 12
Pollen 8.60 out of 12
Air Quality Not available.
Flu Activity Not available.
METAR KCRE 181953Z AUTO 10008G17KT 10SM FEW050 FEW065 BKN080 27/20 A2994 RMK AO2 SLP140 T02670200 TSNO

More Conditions Fewer Conditions

Pressure 29.95 in
Visibility 10.0 miles
Clouds Few 5000 ft
Few 6500 ft
Mostly Cloudy 8000 ft
Heat Index 81 °F
Dew Point 72 °F
Humidity 82%
Rainfall 0.75 in
Snow Depth Not available.
UV 1.4 out of 12
Pollen 8.60 out of 12
Air Quality Not available.
Flu Activity Not available.
METAR KCRE 181953Z AUTO 10008G17KT 10SM FEW050 FEW065 BKN080 27/20 A2994 RMK AO2 SLP140 T02670200 TSNO

More Conditions Fewer Conditions

10-Day Weather Forecast

Almanac

Astronomy

Sep. 18, 2014 Rise Set
Actual Time 7:00 AM EDT 7:17 PM EDT
Civil Twilight 6:35 AM EDT 7:42 PM EDT
Nautical Twilight 6:06 AM EDT 8:11 PM EDT
Astronomical Twilight 5:36 AM EDT 8:41 PM EDT
Moon 2:02 AM EDT 3:57 PM EDT
Length of Visible Light 13h 06m
Length of Day
12h 16m
Tomorrow will be 2m 5s shorter.
Waning Crescent, 25% of the Moon is Illuminated
Today
Waning Crescent
Sep 24
New
Oct 1
First Quarter
Oct 8
Full
Oct 15
Last Quarter

Today's Extremes

State Highs State Lows

Community

WunderPhotos

Upload Photos

1,754,423 photos uploaded!

WunderBlogs® & News

By Dr. Jeff Masters
Director of Meteorology, Weather Underground
By Kari Strenfel
Meteorologist, Weather Underground
By Christopher C. Burt
Weather Historian, Weather Underground
September 18, 2014
September 18, 2014
September 18, 2014

Nearby

Snow Depth

Station Depth Elevation
No new snow has been reported.

Earthquake Activity

City Distance Mag. Time & Date
No recent earthquake activity has been reported nearby.
Minimum magnitude displayed is 2.5.

Coastal Water Temperatures

Place Temperature
Springmaid Pier, SC 82.0 °F

Nearby Weather Stations